sensor_id;sensor_type;location;lat;lon;timestamp;pressure;altitude;pressure_sealevel;temperature;humidity
8451;BME280;4262;50.980;13.892;2022-10-15T04:02:24;50817.19;;;-142.97;79.07
8451;BME280;4262;50.980;13.892;2022-10-15T04:05:06;50791.84;;;-142.97;79.46
8451;BME280;4262;50.980;13.892;2022-10-15T04:07:34;50758.69;;;-142.97;78.64
8451;BME280;4262;50.980;13.892;2022-10-15T04:10:04;50762.59;;;-142.97;78.96
8451;BME280;4262;50.980;13.892;2022-10-15T04:12:37;50756.75;;;-142.97;79.04
8451;BME280;4262;50.980;13.892;2022-10-15T04:15:07;50778.19;;;-142.97;78.71
8451;BME280;4262;50.980;13.892;2022-10-15T04:17:40;50797.69;;;-142.97;78.85
8451;BME280;4262;50.980;13.892;2022-10-15T04:20:08;50784.03;;;-142.97;78.88
8451;BME280;4262;50.980;13.892;2022-10-15T04:22:36;50787.94;;;-142.97;79.29
8451;BME280;4262;50.980;13.892;2022-10-15T04:25:05;50739.19;;;-142.97;79.36
8451;BME280;4262;50.980;13.892;2022-10-15T04:27:32;50780.13;;;-142.97;78.87
8451;BME280;4262;50.980;13.892;2022-10-15T04:30:08;50782.09;;;-142.97;79.06
8451;BME280;4262;50.980;13.892;2022-10-15T04:32:40;50747.00;;;-142.97;78.96
8451;BME280;4262;50.980;13.892;2022-10-15T04:35:07;50766.50;;;-142.97;79.31
8451;BME280;4262;50.980;13.892;2022-10-15T04:37:49;50743.09;;;-142.97;79.06
8451;BME280;4262;50.980;13.892;2022-10-15T04:40:16;50748.94;;;-142.97;79.05
8451;BME280;4262;50.980;13.892;2022-10-15T04:42:43;50774.28;;;-142.97;79.48
8451;BME280;4262;50.980;13.892;2022-10-15T04:45:11;50776.25;;;-142.97;80.02
8451;BME280;4262;50.980;13.892;2022-10-15T04:47:39;50774.28;;;-142.97;80.47
8451;BME280;4262;50.980;13.892;2022-10-15T04:50:10;50797.69;;;-142.97;80.28
8451;BME280;4262;50.980;13.892;2022-10-15T04:52:58;50799.63;;;-142.97;80.39
8451;BME280;4262;50.980;13.892;2022-10-15T04:55:27;50776.25;;;-142.97;79.94
8451;BME280;4262;50.980;13.892;2022-10-15T04:57:57;50782.09;;;-142.97;80.21
8451;BME280;4262;50.980;13.892;2022-10-15T05:00:28;50784.03;;;-142.97;80.17
8451;BME280;4262;50.980;13.892;2022-10-15T05:03:15;50791.84;;;-142.97;80.51
8451;BME280;4262;50.980;13.892;2022-10-15T05:05:48;50743.09;;;-142.97;80.82
8451;BME280;4262;50.980;13.892;2022-10-15T05:08:15;50764.53;;;-142.97;81.15
8451;BME280;4262;50.980;13.892;2022-10-15T05:11:01;50778.19;;;-142.97;81.54
8451;BME280;4262;50.980;13.892;2022-10-15T05:13:29;50811.34;;;-142.97;81.51
8451;BME280;4262;50.980;13.892;2022-10-15T05:16:00;50784.03;;;-142.97;81.07
8451;BME280;4262;50.980;13.892;2022-10-15T05:18:35;50776.25;;;-142.97;80.96
8451;BME280;4262;50.980;13.892;2022-10-15T05:21:04;50760.63;;;-142.97;80.93
8451;BME280;4262;50.980;13.892;2022-10-15T05:23:31;50774.28;;;-142.97;80.67
8451;BME280;4262;50.980;13.892;2022-10-15T05:26:12;50785.97;;;-142.97;80.51
8451;BME280;4262;50.980;13.892;2022-10-15T05:28:42;50803.53;;;-142.97;80.78
8451;BME280;4262;50.980;13.892;2022-10-15T05:31:18;50801.59;;;-142.97;81.10
8451;BME280;4262;50.980;13.892;2022-10-15T05:33:47;50764.53;;;-142.97;80.88
8451;BME280;4262;50.980;13.892;2022-10-15T05:36:18;50774.28;;;-142.97;81.19
8451;BME280;4262;50.980;13.892;2022-10-15T05:38:55;50780.13;;;-142.97;80.37
8451;BME280;4262;50.980;13.892;2022-10-15T05:41:23;50795.75;;;-142.97;80.45
8451;BME280;4262;50.980;13.892;2022-10-15T05:43:54;50823.03;;;-142.97;80.97
8451;BME280;4262;50.980;13.892;2022-10-15T05:46:24;50774.28;;;-142.97;80.88
8451;BME280;4262;50.980;13.892;2022-10-15T05:48:56;50774.28;;;-142.97;81.02
8451;BME280;4262;50.980;13.892;2022-10-15T05:51:25;50813.28;;;-142.97;80.96
8451;BME280;4262;50.980;13.892;2022-10-15T05:53:58;50776.25;;;-142.97;80.98
8451;BME280;4262;50.980;13.892;2022-10-15T05:56:25;50764.53;;;-142.97;80.50
8451;BME280;4262;50.980;13.892;2022-10-15T05:58:52;50801.59;;;-142.97;80.75
8451;BME280;4262;50.980;13.892;2022-10-15T06:01:20;50750.88;;;-142.97;80.03
8451;BME280;4262;50.980;13.892;2022-10-15T06:03:51;50803.53;;;-142.97;79.49
8451;BME280;4262;50.980;13.892;2022-10-15T06:06:20;50756.75;;;-142.97;79.42
8451;BME280;4262;50.980;13.892;2022-10-15T06:08:48;50793.78;;;-142.97;79.14
8451;BME280;4262;50.980;13.892;2022-10-15T06:11:15;50766.50;;;-142.97;78.99
8451;BME280;4262;50.980;13.892;2022-10-15T06:13:43;50799.63;;;-142.97;79.00
8451;BME280;4262;50.980;13.892;2022-10-15T06:16:11;50739.19;;;-142.97;79.47
8451;BME280;4262;50.980;13.892;2022-10-15T06:18:38;50809.38;;;-142.97;79.32
8451;BME280;4262;50.980;13.892;2022-10-15T06:21:06;50797.69;;;-142.97;78.84
8451;BME280;4262;50.980;13.892;2022-10-15T06:23:34;50801.59;;;-142.97;78.60
8451;BME280;4262;50.980;13.892;2022-10-15T06:26:02;50778.19;;;-142.97;79.09
8451;BME280;4262;50.980;13.892;2022-10-15T06:28:29;50795.75;;;-142.97;79.17
8451;BME280;4262;50.980;13.892;2022-10-15T06:30:57;50768.44;;;-142.97;79.31
8451;BME280;4262;50.980;13.892;2022-10-15T06:33:28;50772.34;;;-142.97;79.22
8451;BME280;4262;50.980;13.892;2022-10-15T06:35:59;50795.75;;;-142.97;79.97
8451;BME280;4262;50.980;13.892;2022-10-15T06:38:27;50797.69;;;-142.97;78.98
8451;BME280;4262;50.980;13.892;2022-10-15T06:40:55;50789.88;;;-142.97;78.73
8451;BME280;4262;50.980;13.892;2022-10-15T06:43:22;50782.09;;;-142.97;78.15
8451;BME280;4262;50.980;13.892;2022-10-15T06:45:49;50768.44;;;-142.97;78.01
8451;BME280;4262;50.980;13.892;2022-10-15T06:48:16;50782.09;;;-142.97;78.15
8451;BME280;4262;50.980;13.892;2022-10-15T06:50:44;50785.97;;;-142.97;77.69
8451;BME280;4262;50.980;13.892;2022-10-15T06:53:10;50789.88;;;-142.97;77.83
8451;BME280;4262;50.980;13.892;2022-10-15T06:55:37;50758.69;;;-142.97;77.69
8451;BME280;4262;50.980;13.892;2022-10-15T06:58:06;50762.59;;;-142.97;77.92
8451;BME280;4262;50.980;13.892;2022-10-15T07:00:33;50782.09;;;-142.97;78.13
8451;BME280;4262;50.980;13.892;2022-10-15T07:03:02;50752.84;;;-142.97;77.33
8451;BME280;4262;50.980;13.892;2022-10-15T07:05:30;50782.09;;;-142.97;77.46
8451;BME280;4262;50.980;13.892;2022-10-15T07:07:57;50803.53;;;-142.97;77.24
8451;BME280;4262;50.980;13.892;2022-10-15T07:10:25;50805.50;;;-142.97;76.90
8451;BME280;4262;50.980;13.892;2022-10-15T07:12:52;50782.09;;;-142.97;77.53
8451;BME280;4262;50.980;13.892;2022-10-15T07:15:21;50780.13;;;-142.97;76.96
8451;BME280;4262;50.980;13.892;2022-10-15T07:17:47;50774.28;;;-142.97;76.95
8451;BME280;4262;50.980;13.892;2022-10-15T07:20:15;50797.69;;;-142.97;76.81
8451;BME280;4262;50.980;13.892;2022-10-15T07:22:42;50750.88;;;-142.97;76.90
8451;BME280;4262;50.980;13.892;2022-10-15T07:25:09;50770.38;;;-142.97;77.76
8451;BME280;4262;50.980;13.892;2022-10-15T07:27:36;50778.19;;;-142.97;77.31
8451;BME280;4262;50.980;13.892;2022-10-15T07:30:04;50754.78;;;-142.97;77.05
8451;BME280;4262;50.980;13.892;2022-10-15T07:32:33;50762.59;;;-142.97;76.39
8451;BME280;4262;50.980;13.892;2022-10-15T07:35:00;50799.63;;;-142.97;77.57
8451;BME280;4262;50.980;13.892;2022-10-15T07:37:27;50799.63;;;-142.97;76.98
8451;BME280;4262;50.980;13.892;2022-10-15T07:39:54;50797.69;;;-142.97;77.41
8451;BME280;4262;50.980;13.892;2022-10-15T07:42:21;50776.25;;;-142.97;77.35
8451;BME280;4262;50.980;13.892;2022-10-15T07:44:48;50750.88;;;-142.97;77.82
8451;BME280;4262;50.980;13.892;2022-10-15T07:47:15;50768.44;;;-142.97;77.56
8451;BME280;4262;50.980;13.892;2022-10-15T07:49:43;50791.84;;;-142.97;77.09
8451;BME280;4262;50.980;13.892;2022-10-15T07:52:10;50793.78;;;-142.97;76.95
8451;BME280;4262;50.980;13.892;2022-10-15T07:54:37;50756.75;;;-142.97;76.31
8451;BME280;4262;50.980;13.892;2022-10-15T07:57:03;50768.44;;;-142.97;75.69
8451;BME280;4262;50.980;13.892;2022-10-15T07:59:31;50762.59;;;-142.97;75.25
8451;BME280;4262;50.980;13.892;2022-10-15T08:01:58;50774.28;;;-142.97;74.36
8451;BME280;4262;50.980;13.892;2022-10-15T08:04:25;50741.13;;;-142.97;74.99
8451;BME280;4262;50.980;13.892;2022-10-15T08:06:53;50754.78;;;-142.97;73.44
8451;BME280;4262;50.980;13.892;2022-10-15T08:09:20;50762.59;;;-142.97;73.08
8451;BME280;4262;50.980;13.892;2022-10-15T08:11:47;50743.09;;;-142.97;72.36
8451;BME280;4262;50.980;13.892;2022-10-15T08:14:16;50770.38;;;-142.97;72.14
8451;BME280;4262;50.980;13.892;2022-10-15T08:16:43;50789.88;;;-142.97;72.34
8451;BME280;4262;50.980;13.892;2022-10-15T08:19:10;50799.63;;;-142.97;72.56
8451;BME280;4262;50.980;13.892;2022-10-15T08:21:36;50756.75;;;-142.97;73.25
8451;BME280;4262;50.980;13.892;2022-10-15T08:24:05;50754.78;;;-142.97;72.74
8451;BME280;4262;50.980;13.892;2022-10-15T08:26:32;50776.25;;;-142.97;73.26
8451;BME280;4262;50.980;13.892;2022-10-15T08:28:59;50756.75;;;-142.97;73.25
8451;BME280;4262;50.980;13.892;2022-10-15T08:31:26;50768.44;;;-142.97;72.88
8451;BME280;4262;50.980;13.892;2022-10-15T08:33:53;50799.63;;;-142.97;73.34
8451;BME280;4262;50.980;13.892;2022-10-15T08:36:20;50778.19;;;-142.97;73.35
8451;BME280;4262;50.980;13.892;2022-10-15T08:38:49;50745.03;;;-142.97;74.00
8451;BME280;4262;50.980;13.892;2022-10-15T08:41:22;50756.75;;;-142.97;73.86
8451;BME280;4262;50.980;13.892;2022-10-15T08:43:51;50766.50;;;-142.97;74.05
8451;BME280;4262;50.980;13.892;2022-10-15T08:46:21;50774.28;;;-142.97;74.98
8451;BME280;4262;50.980;13.892;2022-10-15T08:48:52;50762.59;;;-142.97;74.38
8451;BME280;4262;50.980;13.892;2022-10-15T08:51:21;50737.25;;;-142.97;74.65
8451;BME280;4262;50.980;13.892;2022-10-15T08:53:50;50780.13;;;-142.97;74.98
8451;BME280;4262;50.980;13.892;2022-10-15T08:56:21;50760.63;;;-142.97;74.88
8451;BME280;4262;50.980;13.892;2022-10-15T08:58:52;50778.19;;;-142.97;75.29
8451;BME280;4262;50.980;13.892;2022-10-15T09:01:28;50750.88;;;-142.97;74.79
8451;BME280;4262;50.980;13.892;2022-10-15T09:04:07;50766.50;;;-142.97;74.79
8451;BME280;4262;50.980;13.892;2022-10-15T09:06:40;50770.38;;;-142.97;74.79
8451;BME280;4262;50.980;13.892;2022-10-15T09:09:14;50764.53;;;-142.97;73.43
8451;BME280;4262;50.980;13.892;2022-10-15T09:11:58;50754.78;;;-142.97;72.40
8451;BME280;4262;50.980;13.892;2022-10-15T09:14:39;50770.38;;;-142.97;71.48
8451;BME280;4262;50.980;13.892;2022-10-15T09:17:14;50750.88;;;-142.97;70.96
8451;BME280;4262;50.980;13.892;2022-10-15T09:19:45;50715.78;;;-142.97;70.43
8451;BME280;4262;50.980;13.892;2022-10-15T09:22:17;50770.38;;;-142.97;70.33
8451;BME280;4262;50.980;13.892;2022-10-15T09:24:44;50823.03;;;-142.97;69.36
8451;BME280;4262;50.980;13.892;2022-10-15T09:27:18;50787.94;;;-142.97;70.35
8451;BME280;4262;50.980;13.892;2022-10-15T09:30:03;50748.94;;;-142.97;68.30
8451;BME280;4262;50.980;13.892;2022-10-15T09:32:34;50745.03;;;-142.97;69.15
8451;BME280;4262;50.980;13.892;2022-10-15T09:35:11;50715.78;;;-142.97;68.88
8451;BME280;4262;50.980;13.892;2022-10-15T09:37:48;50747.00;;;-142.97;67.66
8451;BME280;4262;50.980;13.892;2022-10-15T09:40:37;50789.88;;;-142.97;67.63
8451;BME280;4262;50.980;13.892;2022-10-15T09:43:09;50785.97;;;-142.97;67.89
8451;BME280;4262;50.980;13.892;2022-10-15T09:45:37;50758.69;;;-142.97;67.44
8451;BME280;4262;50.980;13.892;2022-10-15T09:48:13;50793.78;;;-142.97;67.16
8451;BME280;4262;50.980;13.892;2022-10-15T09:50:43;50803.53;;;-142.97;66.78
8451;BME280;4262;50.980;13.892;2022-10-15T09:53:17;50756.75;;;-142.97;67.84
8451;BME280;4262;50.980;13.892;2022-10-15T09:55:49;50793.78;;;-142.97;67.55
8451;BME280;4262;50.980;13.892;2022-10-15T09:58:27;50770.38;;;-142.97;67.21
8451;BME280;4262;50.980;13.892;2022-10-15T10:00:59;50762.59;;;-142.97;68.26
8451;BME280;4262;50.980;13.892;2022-10-15T10:03:34;50784.03;;;-142.97;67.84
8451;BME280;4262;50.980;13.892;2022-10-15T10:06:03;50774.28;;;-142.97;68.11
8451;BME280;4262;50.980;13.892;2022-10-15T10:08:37;50791.84;;;-142.97;68.07
8451;BME280;4262;50.980;13.892;2022-10-15T10:11:07;50754.78;;;-142.97;68.12
8451;BME280;4262;50.980;13.892;2022-10-15T10:13:39;50782.09;;;-142.97;67.93
8451;BME280;4262;50.980;13.892;2022-10-15T10:16:08;50782.09;;;-142.97;67.57
8451;BME280;4262;50.980;13.892;2022-10-15T10:18:36;50801.59;;;-142.97;67.39
8451;BME280;4262;50.980;13.892;2022-10-15T10:21:05;50758.69;;;-142.97;67.52
8451;BME280;4262;50.980;13.892;2022-10-15T10:23:34;50737.25;;;-142.97;66.90
8451;BME280;4262;50.980;13.892;2022-10-15T10:26:02;50723.59;;;-142.97;67.11
8451;BME280;4262;50.980;13.892;2022-10-15T10:28:33;50791.84;;;-142.97;66.67
8451;BME280;4262;50.980;13.892;2022-10-15T10:31:07;50754.78;;;-142.97;66.34
8451;BME280;4262;50.980;13.892;2022-10-15T10:33:40;50760.63;;;-142.97;66.32
8451;BME280;4262;50.980;13.892;2022-10-15T10:36:19;50762.59;;;-142.97;67.25
8451;BME280;4262;50.980;13.892;2022-10-15T10:38:54;50743.09;;;-142.97;67.16
8451;BME280;4262;50.980;13.892;2022-10-15T10:41:22;50741.13;;;-142.97;67.09
8451;BME280;4262;50.980;13.892;2022-10-15T10:43:52;50768.44;;;-142.97;67.10
8451;BME280;4262;50.980;13.892;2022-10-15T10:46:21;50768.44;;;-142.97;67.62
8451;BME280;4262;50.980;13.892;2022-10-15T10:48:49;50787.94;;;-142.97;67.61
8451;BME280;4262;50.980;13.892;2022-10-15T10:51:19;50801.59;;;-142.97;67.20
8451;BME280;4262;50.980;13.892;2022-10-15T10:53:54;50756.75;;;-142.97;67.75
8451;BME280;4262;50.980;13.892;2022-10-15T10:56:25;50772.34;;;-142.97;67.76
8451;BME280;4262;50.980;13.892;2022-10-15T10:58:57;50787.94;;;-142.97;67.19
8451;BME280;4262;50.980;13.892;2022-10-15T11:01:27;50780.13;;;-142.97;66.70
8451;BME280;4262;50.980;13.892;2022-10-15T11:03:54;50791.84;;;-142.97;67.37
8451;BME280;4262;50.980;13.892;2022-10-15T11:06:29;50758.69;;;-142.97;66.72
8451;BME280;4262;50.980;13.892;2022-10-15T11:09:14;50776.25;;;-142.97;65.51
8451;BME280;4262;50.980;13.892;2022-10-15T11:11:53;50828.88;;;-142.97;66.49
8451;BME280;4262;50.980;13.892;2022-10-15T11:14:31;50766.50;;;-142.97;65.44
8451;BME280;4262;50.980;13.892;2022-10-15T11:17:11;50772.34;;;-142.97;66.09
8451;BME280;4262;50.980;13.892;2022-10-15T11:19:45;50772.34;;;-142.97;66.75
8451;BME280;4262;50.980;13.892;2022-10-15T11:22:28;50780.13;;;-142.97;67.80
8451;BME280;4262;50.980;13.892;2022-10-15T11:25:02;50801.59;;;-142.97;67.69
8451;BME280;4262;50.980;13.892;2022-10-15T11:27:42;50799.63;;;-142.97;67.91
8451;BME280;4262;50.980;13.892;2022-10-15T11:30:25;50758.69;;;-142.97;66.87
8451;BME280;4262;50.980;13.892;2022-10-15T11:33:08;50809.38;;;-142.97;67.34
8451;BME280;4262;50.980;13.892;2022-10-15T11:35:42;50778.19;;;-142.97;66.70
8451;BME280;4262;50.980;13.892;2022-10-15T11:38:18;50815.22;;;-142.97;67.26
8451;BME280;4262;50.980;13.892;2022-10-15T11:41:00;50801.59;;;-142.97;66.68
8451;BME280;4262;50.980;13.892;2022-10-15T11:43:41;50799.63;;;-142.97;67.60
8451;BME280;4262;50.980;13.892;2022-10-15T11:46:14;50770.38;;;-142.97;68.26
8451;BME280;4262;50.980;13.892;2022-10-15T11:49:02;50795.75;;;-142.97;68.13
8451;BME280;4262;50.980;13.892;2022-10-15T11:51:33;50805.50;;;-142.97;68.56
8451;BME280;4262;50.980;13.892;2022-10-15T11:54:13;50770.38;;;-142.97;67.54
8451;BME280;4262;50.980;13.892;2022-10-15T11:56:44;50747.00;;;-142.97;67.20
8451;BME280;4262;50.980;13.892;2022-10-15T11:59:18;50778.19;;;-142.97;67.16
8451;BME280;4262;50.980;13.892;2022-10-15T12:01:52;50789.88;;;-142.97;66.41
8451;BME280;4262;50.980;13.892;2022-10-15T12:04:28;50795.75;;;-142.97;65.74
8451;BME280;4262;50.980;13.892;2022-10-15T12:06:59;50782.09;;;-142.97;66.87
8451;BME280;4262;50.980;13.892;2022-10-15T12:09:30;50764.53;;;-142.97;66.87
8451;BME280;4262;50.980;13.892;2022-10-15T12:12:04;50764.53;;;-142.97;66.90
8451;BME280;4262;50.980;13.892;2022-10-15T12:14:48;50789.88;;;-142.97;66.90
8451;BME280;4262;50.980;13.892;2022-10-15T12:17:20;50747.00;;;-142.97;66.01
8451;BME280;4262;50.980;13.892;2022-10-15T12:19:54;50787.94;;;-142.97;65.63
8451;BME280;4262;50.980;13.892;2022-10-15T12:22:31;50754.78;;;-142.97;65.96
8451;BME280;4262;50.980;13.892;2022-10-15T12:24:59;50799.63;;;-142.97;65.79
8451;BME280;4262;50.980;13.892;2022-10-15T12:27:31;50819.13;;;-142.97;66.29
8451;BME280;4262;50.980;13.892;2022-10-15T12:30:24;50801.59;;;-142.97;65.36
8451;BME280;4262;50.980;13.892;2022-10-15T12:32:52;50776.25;;;-142.97;64.98
8451;BME280;4262;50.980;13.892;2022-10-15T12:35:24;50789.88;;;-142.97;65.45
8451;BME280;4262;50.980;13.892;2022-10-15T12:37:54;50598.81;;;-142.97;65.19
8451;BME280;4262;50.980;13.892;2022-10-15T12:40:27;50747.00;;;-142.97;63.83
8451;BME280;4262;50.980;13.892;2022-10-15T12:42:56;50764.53;;;-142.97;63.15
8451;BME280;4262;50.980;13.892;2022-10-15T12:45:34;50778.19;;;-142.97;63.27
8451;BME280;4262;50.980;13.892;2022-10-15T12:48:20;50756.75;;;-142.97;62.85
8451;BME280;4262;50.980;13.892;2022-10-15T12:50:48;50750.88;;;-142.97;63.33
8451;BME280;4262;50.980;13.892;2022-10-15T12:53:29;50754.78;;;-142.97;63.99
8451;BME280;4262;50.980;13.892;2022-10-15T12:56:12;50708.00;;;-142.97;64.34
8451;BME280;4262;50.980;13.892;2022-10-15T12:58:47;50764.53;;;-142.97;63.61
8451;BME280;4262;50.980;13.892;2022-10-15T13:01:28;50754.78;;;-142.97;63.77
8451;BME280;4262;50.980;13.892;2022-10-15T13:03:59;50752.84;;;-142.97;63.02
8451;BME280;4262;50.980;13.892;2022-10-15T13:06:32;50737.25;;;-142.97;62.98
8451;BME280;4262;50.980;13.892;2022-10-15T13:09:05;50739.19;;;-142.97;63.85
8451;BME280;4262;50.980;13.892;2022-10-15T13:11:46;50772.34;;;-142.97;63.15
8451;BME280;4262;50.980;13.892;2022-10-15T13:14:23;50785.97;;;-142.97;62.72
8451;BME280;4262;50.980;13.892;2022-10-15T13:16:54;50776.25;;;-142.97;63.51
8451;BME280;4262;50.980;13.892;2022-10-15T13:19:24;50760.63;;;-142.97;63.71
8451;BME280;4262;50.980;13.892;2022-10-15T13:21:54;50754.78;;;-142.97;63.95
8451;BME280;4262;50.980;13.892;2022-10-15T13:24:25;50739.19;;;-142.97;64.53
8451;BME280;4262;50.980;13.892;2022-10-15T13:26:54;50674.84;;;-142.97;63.20
8451;BME280;4262;50.980;13.892;2022-10-15T13:29:23;50756.75;;;-142.97;62.10
8451;BME280;4262;50.980;13.892;2022-10-15T13:31:51;50741.13;;;-142.97;62.04
8451;BME280;4262;50.980;13.892;2022-10-15T13:34:24;50631.94;;;-142.97;59.72
8451;BME280;4262;50.980;13.892;2022-10-15T13:36:55;50635.84;;;-142.97;57.17
8451;BME280;4262;50.980;13.892;2022-10-15T13:39:27;50756.75;;;-142.97;56.90
8451;BME280;4262;50.980;13.892;2022-10-15T13:42:05;50756.75;;;-142.97;58.71
8451;BME280;4262;50.980;13.892;2022-10-15T13:44:33;50747.00;;;-142.97;59.38
8451;BME280;4262;50.980;13.892;2022-10-15T13:47:00;50727.50;;;-142.97;60.18
8451;BME280;4262;50.980;13.892;2022-10-15T13:49:27;50733.34;;;-142.97;61.05
8451;BME280;4262;50.980;13.892;2022-10-15T13:51:55;50725.53;;;-142.97;61.77
8451;BME280;4262;50.980;13.892;2022-10-15T13:54:24;50770.38;;;-142.97;62.77
8451;BME280;4262;50.980;13.892;2022-10-15T13:56:55;50741.13;;;-142.97;62.69
8451;BME280;4262;50.980;13.892;2022-10-15T13:59:25;50789.88;;;-142.97;63.88
8451;BME280;4262;50.980;13.892;2022-10-15T14:01:53;50774.28;;;-142.97;64.28
8451;BME280;4262;50.980;13.892;2022-10-15T14:04:27;50747.00;;;-142.97;63.50
8451;BME280;4262;50.980;13.892;2022-10-15T14:06:57;50674.84;;;-142.97;64.25
8451;BME280;4262;50.980;13.892;2022-10-15T14:09:29;50645.59;;;-142.97;62.89
8451;BME280;4262;50.980;13.892;2022-10-15T14:11:57;50612.44;;;-142.97;60.30
8451;BME280;4262;50.980;13.892;2022-10-15T14:14:31;50721.63;;;-142.97;57.85
8451;BME280;4262;50.980;13.892;2022-10-15T14:16:59;50745.03;;;-142.97;58.44
8451;BME280;4262;50.980;13.892;2022-10-15T14:19:28;50780.13;;;-142.97;59.38
8451;BME280;4262;50.980;13.892;2022-10-15T14:21:59;50731.38;;;-142.97;59.65
8451;BME280;4262;50.980;13.892;2022-10-15T14:24:31;50778.19;;;-142.97;60.86
8451;BME280;4262;50.980;13.892;2022-10-15T14:27:02;50754.78;;;-142.97;62.52
8451;BME280;4262;50.980;13.892;2022-10-15T14:29:36;50787.94;;;-142.97;62.39
8451;BME280;4262;50.980;13.892;2022-10-15T14:32:17;50733.34;;;-142.97;62.79
8451;BME280;4262;50.980;13.892;2022-10-15T14:34:45;50750.88;;;-142.97;62.72
8451;BME280;4262;50.980;13.892;2022-10-15T14:37:38;50752.84;;;-142.97;63.73
8451;BME280;4262;50.980;13.892;2022-10-15T14:40:13;50787.94;;;-142.97;63.43
8451;BME280;4262;50.980;13.892;2022-10-15T14:42:43;50760.63;;;-142.97;64.43
8451;BME280;4262;50.980;13.892;2022-10-15T14:45:11;50760.63;;;-142.97;65.00
8451;BME280;4262;50.980;13.892;2022-10-15T14:47:40;50834.72;;;-142.97;65.94
8451;BME280;4262;50.980;13.892;2022-10-15T14:50:11;50774.28;;;-142.97;66.24
8451;BME280;4262;50.980;13.892;2022-10-15T14:52:43;50795.75;;;-142.97;66.29
8451;BME280;4262;50.980;13.892;2022-10-15T14:55:15;50782.09;;;-142.97;66.17
8451;BME280;4262;50.980;13.892;2022-10-15T14:57:45;50727.50;;;-142.97;66.33
8451;BME280;4262;50.980;13.892;2022-10-15T15:00:23;50721.63;;;-142.97;65.59
8451;BME280;4262;50.980;13.892;2022-10-15T15:02:53;50725.53;;;-142.97;65.31
8451;BME280;4262;50.980;13.892;2022-10-15T15:05:21;50708.00;;;-142.97;65.67
8451;BME280;4262;50.980;13.892;2022-10-15T15:07:50;50752.84;;;-142.97;63.29
8451;BME280;4262;50.980;13.892;2022-10-15T15:10:17;50785.97;;;-142.97;63.59
8451;BME280;4262;50.980;13.892;2022-10-15T15:12:48;50754.78;;;-142.97;64.92
8451;BME280;4262;50.980;13.892;2022-10-15T15:15:18;50772.34;;;-142.97;65.64
8451;BME280;4262;50.980;13.892;2022-10-15T15:17:45;50789.88;;;-142.97;66.54
8451;BME280;4262;50.980;13.892;2022-10-15T15:20:14;50774.28;;;-142.97;66.05
8451;BME280;4262;50.980;13.892;2022-10-15T15:22:41;50801.59;;;-142.97;66.52
8451;BME280;4262;50.980;13.892;2022-10-15T15:25:14;50785.97;;;-142.97;65.78
8451;BME280;4262;50.980;13.892;2022-10-15T15:27:42;50801.59;;;-142.97;65.99
8451;BME280;4262;50.980;13.892;2022-10-15T15:30:14;50758.69;;;-142.97;66.17
8451;BME280;4262;50.980;13.892;2022-10-15T15:32:41;50750.88;;;-142.97;66.34
8451;BME280;4262;50.980;13.892;2022-10-15T15:35:17;50799.63;;;-142.97;66.63
8451;BME280;4262;50.980;13.892;2022-10-15T15:37:46;50795.75;;;-142.97;66.83
8451;BME280;4262;50.980;13.892;2022-10-15T15:40:15;50778.19;;;-142.97;66.94
8451;BME280;4262;50.980;13.892;2022-10-15T15:42:43;50766.50;;;-142.97;67.14
8451;BME280;4262;50.980;13.892;2022-10-15T15:45:16;50801.59;;;-142.97;67.39
8451;BME280;4262;50.980;13.892;2022-10-15T15:47:44;50799.63;;;-142.97;67.79
8451;BME280;4262;50.980;13.892;2022-10-15T15:50:11;50774.28;;;-142.97;68.23
8451;BME280;4262;50.980;13.892;2022-10-15T15:52:38;50811.34;;;-142.97;68.10
8451;BME280;4262;50.980;13.892;2022-10-15T15:55:07;50817.19;;;-142.97;68.75
8451;BME280;4262;50.980;13.892;2022-10-15T15:57:36;50795.75;;;-142.97;68.68
8451;BME280;4262;50.980;13.892;2022-10-15T16:00:04;50770.38;;;-142.97;69.39
8451;BME280;4262;50.980;13.892;2022-10-15T16:02:31;50784.03;;;-142.97;69.36
8451;BME280;4262;50.980;13.892;2022-10-15T16:04:58;50776.25;;;-142.97;70.29
8451;BME280;4262;50.980;13.892;2022-10-15T16:07:26;50832.78;;;-142.97;71.39
8451;BME280;4262;50.980;13.892;2022-10-15T16:09:53;50780.13;;;-142.97;71.87
8451;BME280;4262;50.980;13.892;2022-10-15T16:12:20;50793.78;;;-142.97;71.73
8451;BME280;4262;50.980;13.892;2022-10-15T16:14:49;50782.09;;;-142.97;71.84
8451;BME280;4262;50.980;13.892;2022-10-15T16:17:16;50805.50;;;-142.97;73.14
8451;BME280;4262;50.980;13.892;2022-10-15T16:19:43;50770.38;;;-142.97;73.76
8451;BME280;4262;50.980;13.892;2022-10-15T16:22:10;50803.53;;;-142.97;74.76
8451;BME280;4262;50.980;13.892;2022-10-15T16:24:37;50801.59;;;-142.97;75.34
8451;BME280;4262;50.980;13.892;2022-10-15T16:27:05;50811.34;;;-142.97;75.35
8451;BME280;4262;50.980;13.892;2022-10-15T16:29:32;50795.75;;;-142.97;74.65
8451;BME280;4262;50.980;13.892;2022-10-15T16:32:00;50817.19;;;-142.97;74.34
8451;BME280;4262;50.980;13.892;2022-10-15T16:34:27;50807.44;;;-142.97;74.49
8451;BME280;4262;50.980;13.892;2022-10-15T16:36:54;50795.75;;;-142.97;73.89
8451;BME280;4262;50.980;13.892;2022-10-15T16:39:21;50770.38;;;-142.97;73.79
8451;BME280;4262;50.980;13.892;2022-10-15T16:41:48;50801.59;;;-142.97;74.36
8451;BME280;4262;50.980;13.892;2022-10-15T16:44:15;50836.69;;;-142.97;74.24
8451;BME280;4262;50.980;13.892;2022-10-15T16:46:42;50815.22;;;-142.97;75.33
8451;BME280;4262;50.980;13.892;2022-10-15T16:49:11;50830.84;;;-142.97;75.75
8451;BME280;4262;50.980;13.892;2022-10-15T16:51:37;50809.38;;;-142.97;75.88
8451;BME280;4262;50.980;13.892;2022-10-15T16:54:04;50797.69;;;-142.97;76.22
8451;BME280;4262;50.980;13.892;2022-10-15T16:56:31;50815.22;;;-142.97;76.03
8451;BME280;4262;50.980;13.892;2022-10-15T16:58:59;50817.19;;;-142.97;76.32
8451;BME280;4262;50.980;13.892;2022-10-15T17:01:27;50803.53;;;-142.97;76.00
8451;BME280;4262;50.980;13.892;2022-10-15T17:03:56;50826.94;;;-142.97;76.13
8451;BME280;4262;50.980;13.892;2022-10-15T17:06:26;50782.09;;;-142.97;76.55
8451;BME280;4262;50.980;13.892;2022-10-15T17:08:55;50815.22;;;-142.97;76.64
8451;BME280;4262;50.980;13.892;2022-10-15T17:11:24;50797.69;;;-142.97;77.09